• Join FlightAware (Why Join?)
  • Login
  • US Flag 
10:12PM EDT


 

Airport Tracker/Info


-or-


 

Live Flight TrackerFlight Track Log ✈ AAL936 ✈ 24-Apr-2012 ✈ KMIA - KJFK

Flight Track Log - Related Links

Times and Time Zones

All times are in EDT time to prevent confusion due to time zone crossing. See the AAL936 flight status page for this flight to view local times or setup timezone preferences in your user account.

Time Position Orientation Groundspeed Altitude Reporting Facility
EDT Latitude Longitude Course Direction KTS MPH feet Rate Location/Type
10:34PM 25.7992 -80.3161 271° West 177 204 1,600  Level Miami Center
10:35PM 25.8000 -80.3761 278° West 225 259 3,500 2,760 Climbing Miami Center
10:35PM 25.8069 -80.4339 North 246 283 6,400 3,420 Climbing Miami Center
10:36PM 25.8761 -80.4267 73° East 281 323 9,400 2,280 Climbing Miami Center
10:38PM 25.9081 -80.3122 78° East 321 369 11,800 1,980 Climbing Miami Center
10:39PM 25.9294 -80.1997 77° East 337 388 14,000 2,340 Climbing Miami Center
10:40PM 25.9550 -80.0781 77° East 372 428 16,500 2,460 Climbing Miami Center
10:41PM 25.9808 -79.9539 80° East 400 460 18,900 2,220 Climbing Miami Center
10:42PM 26.0022 -79.8225 61° Northeast 414 476 21,000 2,040 Climbing Miami Center
10:43PM 26.0611 -79.7039 20° North 426 490 23,000 2,040 Climbing Miami Center
10:44PM 26.1747 -79.6581 14° North 395 455 25,100 1,920 Climbing Miami Center
10:45PM 26.3069 -79.6217 15° North 405 466 27,000 1,800 Climbing Miami Center
10:46PM 26.4267 -79.5850 16° North 443 510 28,800 1,380 Climbing Miami Center
10:47PM 26.5297 -79.5525 15° North 461 531 29,800 1,260 Climbing Miami Center
10:48PM 26.6706 -79.5092 15° North 466 536 31,300 1,500 Climbing Miami Center
10:49PM 26.8028 -79.4703 17° North 477 549 32,900 1,680 Climbing Miami Center
10:50PM 26.9456 -79.4222 16° North 482 555 34,800 1,500 Climbing Miami Center
10:51PM 27.0758 -79.3808 15° North 477 549 36,000 1,020 Climbing Miami Center
10:52PM 27.2061 -79.3417 15° North 483 556 36,900 480 Climbing Miami Center
10:53PM 27.3256 -79.3044 15° North 483 556 37,000  Climbing Miami Center
10:54PM 27.4642 -79.2628 16° North 496 571 37,000  Level Miami Center
10:55PM 27.6153 -79.2144 15° North 510 587 37,000  Level Miami Center
10:56PM 27.7497 -79.1728 16° North 510 587 37,000  Level Miami Center
10:57PM 27.8861 -79.1283 16° North 510 587 37,000  Level Miami Center
10:58PM 28.0183 -79.0842 16° North 504 580 37,000  Level Miami Center
10:59PM 28.1547 -79.0397 16° North 494 568 37,000  Level Miami Center
11:00PM 28.2783 -78.9994 15° North 500 575 37,000  Level Miami Center
11:01PM 28.4147 -78.9572 16° North 500 575 37,000  Level Miami Center
11:02PM 28.5511 -78.9125 16° North 500 575 37,000  Level Miami Center
11:03PM 28.6853 -78.8678 16° North 500 575 37,000  Level Miami Center
11:04PM 28.8194 -78.8228 17° North 493 567 37,000  Level Miami Center
11:05PM 28.9556 -78.7753 15° North 498 573 37,000  Level Miami Center
11:06PM 29.0919 -78.7325 16° North 498 573 37,000  Level Miami Center
11:07PM 29.2303 -78.6875 14° North 498 573 37,000  Level Miami Center
11:08PM 29.3683 -78.6469 18° North 498 573 37,000  Level Miami Center
11:09PM 29.5003 -78.5964 15° North 498 573 37,000  Level Miami Center
11:10PM 29.6364 -78.5533 16° North 503 579 37,000  Level Miami Center
11:11PM 29.7736 -78.5094 18° North 498 573 37,000  Level Jacksonville Center
11:12PM 29.9014 -78.4606 12° North 482 555 37,000  Level Jacksonville Center
11:13PM 30.0358 -78.4278 13° North 489 563 37,000  Level Jacksonville Center
11:14PM 30.1619 -78.3933 North 473 544 37,000  Level Jacksonville Center
11:15PM 30.2700 -78.3736 North 462 532 37,000  Level Jacksonville Center
11:16PM 30.4006 -78.3483 11° North 467 537 37,000  Level Jacksonville Center
11:17PM 30.5289 -78.3181 10° North 472 543 37,000  Level Jacksonville Center
11:18PM 30.6594 -78.2925 10° North 472 543 37,000  Level Jacksonville Center
11:19PM 30.7919 -78.2642 10° North 472 543 37,000  Level Jacksonville Center
11:20PM 30.9183 -78.2389 North 466 536 37,000  Level Jacksonville Center
11:21PM 31.0575 -78.2222 11° North 472 543 37,000  Level Jacksonville Center
11:22PM 31.1797 -78.1942 10° North 477 549 37,000  Level Jacksonville Center
11:23PM 31.3061 -78.1686 10° North 466 536 37,000  Level Jacksonville Center
11:24PM 31.4303 -78.1428 11° North 461 531 37,000  Level Jacksonville Center
11:25PM 31.5544 -78.1144 10° North 456 525 37,000  Level Jacksonville Center
11:26PM 31.6808 -78.0883 11° North 451 519 37,000  Level Jacksonville Center
11:27PM 31.8031 -78.0600 10° North 451 519 37,000  Level Jacksonville Center
11:28PM 31.9314 -78.0339 11° North 457 526 37,000  Level Jacksonville Center
11:29PM 32.0597 -78.0050 North 462 532 37,000  Level Jacksonville Center
11:30PM 32.1861 -77.9811 12° North 462 532 37,000  Level Jacksonville Center
11:31PM 32.3142 -77.9494 10° North 462 532 37,000  Level Jacksonville Center
11:32PM 32.4425 -77.9228 10° North 462 532 37,000  Level Jacksonville Center
11:33PM 32.5711 -77.8961 11° North 462 532 37,000  Level Jacksonville Center
11:34PM 32.6972 -77.8669 North 462 532 37,000  Level Jacksonville Center
11:35PM 32.8233 -77.8425 11° North 462 532 37,000  Level Jacksonville Center
11:36PM 32.9494 -77.8133 11° North 462 532 37,000  Level Jacksonville Center
11:37PM 33.0736 -77.7839 North 462 532 37,000  Level Jacksonville Center
11:38PM 33.2806 -77.7425 11° North 471 542 37,000  Level Washington Center
11:39PM 33.4061 -77.7136 10° North 466 536 37,000  Level Washington Center
11:40PM 33.5319 -77.6869 11° North 466 536 37,000  Level Washington Center
11:41PM 33.6556 -77.6575 10° North 460 529 37,000  Level Washington Center
11:42PM 33.7831 -77.6306 12° North 455 524 37,000  Level Washington Center
11:43PM 33.9089 -77.5986 North 455 524 37,000  Level Washington Center
11:44PM 34.0511 -77.5722 11° North 455 524 37,000  Level Washington Center
11:45PM 34.1769 -77.5425 10° North 460 529 37,000  Level Washington Center
11:46PM 34.3067 -77.5153 10° North 465 535 37,000  Level Washington Center
11:47PM 34.4322 -77.4881 11° North 465 535 37,000  Level Washington Center
11:48PM 34.5619 -77.4583 22° Northeast 465 535 37,000  Level Washington Center
11:49PM 34.6839 -77.3981 24° Northeast 465 535 37,000  Level Washington Center
11:50PM 34.8058 -77.3322 26° Northeast 471 542 37,000  Level Washington Center
11:51PM 34.9281 -77.2589 25° Northeast 476 548 37,000  Level Washington Center
11:52PM 35.0500 -77.1906 24° Northeast 476 548 37,000  Level Washington Center
11:53PM 35.1719 -77.1242 24° Northeast 483 556 37,000  Level Washington Center
11:54PM 35.2958 -77.0578 24° Northeast 483 556 37,000  Level Washington Center
11:55PM 35.4197 -76.9889 25° Northeast 483 556 37,000  Level Washington Center
11:56PM 35.5478 -76.9169 24° Northeast 491 565 37,000  Level Washington Center
11:57PM 35.6633 -76.8525 25° Northeast 470 541 37,000  Level Washington Center
11:58PM 35.7869 -76.7828 25° Northeast 470 541 37,000  Level Washington Center
11:59PM 35.9089 -76.7128 25° Northeast 470 541 37,000  Level Washington Center
12:00AM 36.0306 -76.6425 24° Northeast 470 541 37,000  Level Washington Center
12:01AM 36.1542 -76.5747 24° Northeast 476 548 37,000  Level Washington Center
12:02AM 36.2778 -76.5067 25° Northeast 476 548 37,000  Level Washington Center
12:03AM 36.4014 -76.4358 25° Northeast 481 554 37,000  Level Washington Center
12:04AM 36.5228 -76.3647 24° Northeast 481 554 37,000  Level Washington Center
12:05AM 36.6464 -76.2961 26° Northeast 481 554 37,000  Level Washington Center
12:06AM 36.7572 -76.2297 27° Northeast 481 554 37,000  Level Washington Center
12:07AM 36.8767 -76.1528 25° Northeast 481 554 37,000  Level Washington Center
12:08AM 37.0019 -76.0783 28° Northeast 488 562 37,000  Level Washington Center
12:09AM 37.1214 -75.9983 28° Northeast 488 562 37,000  Level Washington Center
12:10AM 37.2403 -75.9181 29° Northeast 483 556 37,000  Level Washington Center
12:11AM 37.3617 -75.8347 27° Northeast 483 556 37,000  Level Washington Center
12:12AM 37.4828 -75.7567 29° Northeast 483 556 37,000  Level Washington Center
12:13AM 37.6017 -75.6731 29° Northeast 483 556 37,000  Level Washington Center
12:14AM 37.7206 -75.5892 28° Northeast 488 562 37,000  Level Washington Center
12:15AM 37.8414 -75.5075 28° Northeast 488 562 37,000  Level Washington Center
12:16AM 37.9583 -75.4283 29° Northeast 488 562 37,000  Level Washington Center
12:17AM 38.0789 -75.3439 27° Northeast 483 556 37,000  Level Washington Center
12:18AM 38.1997 -75.2667 32° Northeast 478 550 37,000  Level Washington Center
12:19AM 38.3267 -75.1656 28° Northeast 478 550 37,000  Level Washington Center
12:20AM 38.4431 -75.0856 29° Northeast 483 556 37,000  Level Washington Center
12:21AM 38.5658 -74.9994 28° Northeast 483 556 37,000 -60 Level Washington Center
12:22AM 38.6842 -74.9189 29° Northeast 483 556 36,900 -1,140 Descending Washington Center
12:23AM 38.8025 -74.8353 30° Northeast 478 550 34,800 -2,400 Descending Washington Center
12:24AM 38.9228 -74.7458 29° Northeast 483 556 32,100 -2,880 Descending Washington Center
12:25AM 39.0431 -74.6617 29° Northeast 483 556 29,100 -2,640 Descending Washington Center
12:26AM 39.1569 -74.5797 30° Northeast 477 549 26,900 -2,160 Descending Washington Center
12:27AM 39.2647 -74.5006 29° Northeast 464 534 24,800 -2,040 Descending Washington Center
12:30AM 39.4842 -74.3431 31° Northeast 413 475 20,200 -1,800 Descending New York Center
12:31AM 39.5931 -74.2569 39° Northeast 413 475 18,900 -1,200 Descending New York Center
12:32AM 39.6814 -74.1642 40° Northeast 408 470 17,900 -1,500 Descending New York Center
12:33AM 39.7589 -74.0789 40° Northeast 402 463 16,000 -2,040 Descending New York Center
12:34AM 39.8425 -73.9881 30° Northeast 397 457 13,800 -2,400 Descending New York Center
12:35AM 39.9425 -73.9142 29° Northeast 374 430 11,300 -1,440 Descending New York Center
12:36AM 40.0233 -73.8556 28° Northeast 350 403 11,000 -420 Descending New York Center
12:37AM 40.0869 -73.8122 37° Northeast 305 351 10,500 -1,020 Descending New York Center
12:37AM 40.1333 -73.7667 30° Northeast 296 341 9,500 -1,800 Descending New York TRACON
12:38AM 40.2000 -73.7167 27° Northeast 294 338 8,000 -1,500 Descending New York TRACON
12:39AM 40.2339 -73.6936 31° Northeast 295 339 7,400 -1,260 Descending New York Center
12:40AM 40.3039 -73.6394 29° Northeast 290 334 6,100 -900 Descending New York Center
12:41AM 40.3717 -73.5906 22° Northeast 284 327 5,600 -480 Descending New York Center
12:41AM 40.4167 -73.5667 30° Northeast 281 323 5,400 -480 Descending New York TRACON
12:42AM 40.4833 -73.5167 360° North 277 319 4,900 -540 Descending New York TRACON
12:43AM 40.5500 -73.5167 360° North 274 315 4,400 -600 Descending New York TRACON
12:44AM 40.6167 -73.5167 351° North 264 304 3,800 -660 Descending New York TRACON
12:45AM 40.7000 -73.5333 303° West 250 288 3,100 -480 Descending New York TRACON
12:46AM 40.7333 -73.6000 303° West 209 241 2,900 -240 Descending New York TRACON